createdAt,value
2018-11-28T01:42:22.266Z,2.36
2018-11-28T01:45:26.845Z,2.37
2018-11-28T01:48:31.355Z,2.38
2018-11-28T01:51:35.842Z,2.39
2018-11-28T01:54:40.408Z,2.55
2018-11-28T01:57:45.007Z,2.42
2018-11-28T02:00:49.542Z,2.48
2018-11-28T02:03:54.114Z,2.48
2018-11-28T02:06:58.646Z,2.42
2018-11-28T02:10:03.256Z,2.50
2018-11-28T02:13:07.863Z,2.49
2018-11-28T02:16:12.558Z,2.47
2018-11-28T02:19:17.091Z,2.46
2018-11-28T02:22:21.640Z,2.45
2018-11-28T02:25:26.240Z,2.37
2018-11-28T02:28:30.777Z,2.39
2018-11-28T02:31:35.290Z,2.39
2018-11-28T02:34:40.000Z,2.51
2018-11-28T02:37:44.614Z,2.50
2018-11-28T02:40:49.186Z,2.46
2018-11-28T02:43:53.700Z,2.40
2018-11-28T02:46:58.502Z,2.40
2018-11-28T02:50:03.182Z,2.26
2018-11-28T02:53:07.741Z,2.31
2018-11-28T02:56:12.253Z,2.30
2018-11-28T02:59:16.825Z,2.40
2018-11-28T03:02:21.353Z,2.35
2018-11-28T03:05:25.903Z,2.33
2018-11-28T03:08:30.549Z,2.33
2018-11-28T03:11:35.199Z,2.34
2018-11-28T03:14:39.774Z,2.30
2018-11-28T03:17:44.284Z,2.26
2018-11-28T03:20:48.921Z,2.30
2018-11-28T03:23:53.618Z,2.28
2018-11-28T03:26:58.160Z,2.25
2018-11-28T03:30:02.766Z,2.19
2018-11-28T03:33:07.481Z,2.20
2018-11-28T03:36:12.259Z,2.14
2018-11-28T03:39:16.879Z,2.22
2018-11-28T03:42:21.415Z,2.23
2018-11-28T03:45:26.003Z,2.38
2018-11-28T03:48:30.615Z,2.24
2018-11-28T03:51:35.140Z,2.27
2018-11-28T03:54:39.762Z,2.29
2018-11-28T03:57:46.171Z,2.18
2018-11-28T04:00:50.907Z,2.30
2018-11-28T04:03:55.521Z,2.18
2018-11-28T04:07:00.081Z,2.30
2018-11-28T04:10:08.073Z,2.26
2018-11-28T04:13:12.634Z,2.25
2018-11-28T04:16:17.186Z,2.18
2018-11-28T04:19:21.841Z,2.17
2018-11-28T04:22:26.426Z,2.14
2018-11-28T04:25:31.007Z,2.08
2018-11-28T04:28:35.627Z,2.13
2018-11-28T04:31:40.351Z,2.16
2018-11-28T04:34:44.946Z,2.09
2018-11-28T04:37:49.474Z,2.18
2018-11-28T04:40:54.068Z,2.12
2018-11-28T04:43:58.680Z,2.21
2018-11-28T04:47:03.220Z,2.14
2018-11-28T04:50:09.923Z,2.36
2018-11-28T04:53:14.386Z,2.23
2018-11-28T04:56:19.095Z,2.14
2018-11-28T04:59:23.741Z,2.30
2018-11-28T05:02:28.502Z,2.11
2018-11-28T05:05:33.019Z,2.23
2018-11-28T05:08:37.644Z,2.11
2018-11-28T05:11:42.346Z,2.07
2018-11-28T05:14:47.007Z,2.05
2018-11-28T05:17:57.418Z,2.00
2018-11-28T05:21:02.149Z,1.96
2018-11-28T05:24:06.808Z,1.76
2018-11-28T05:27:11.461Z,1.61
2018-11-28T05:30:19.330Z,1.65
2018-11-28T05:33:24.070Z,1.43
2018-11-28T05:36:28.614Z,1.39
2018-11-28T05:39:33.246Z,1.41
2018-11-28T05:42:37.924Z,1.31
2018-11-28T05:45:42.451Z,1.27
2018-11-28T05:48:47.021Z,1.12
2018-11-28T05:51:51.644Z,1.23
2018-11-28T05:54:56.404Z,1.06
2018-11-28T05:58:01.054Z,1.20
2018-11-28T06:01:05.640Z,1.05
2018-11-28T06:04:10.287Z,0.83
2018-11-28T06:07:21.640Z,0.81
2018-11-28T06:10:26.239Z,0.78
2018-11-28T06:13:30.905Z,0.91
2018-11-28T06:16:35.969Z,0.77
2018-11-28T06:19:40.608Z,0.71
2018-11-28T06:22:45.311Z,0.79
2018-11-28T06:25:50.004Z,0.78
2018-11-28T06:28:54.669Z,0.79
2018-11-28T06:31:59.241Z,1.14
2018-11-28T06:35:03.757Z,1.17
2018-11-28T06:38:08.367Z,1.23
2018-11-28T06:41:12.885Z,1.35
2018-11-28T06:44:17.641Z,1.43
2018-11-28T06:47:22.214Z,1.45
2018-11-28T06:50:26.884Z,1.32
2018-11-28T06:53:31.432Z,1.26
2018-11-28T06:56:36.012Z,1.27
2018-11-28T06:59:40.795Z,1.38
2018-11-28T07:02:45.562Z,1.40
2018-11-28T07:05:50.250Z,1.45
2018-11-28T07:08:54.979Z,1.44
2018-11-28T07:11:59.525Z,1.51
2018-11-28T07:15:04.322Z,1.73
2018-11-28T07:18:25.687Z,1.69
2018-11-28T07:21:30.415Z,1.68
2018-11-28T07:24:34.942Z,1.73
2018-11-28T07:27:44.823Z,1.88
2018-11-28T07:30:44.194Z,1.99
2018-11-28T07:33:48.861Z,1.99
2018-11-28T07:36:53.900Z,1.99
2018-11-28T07:39:58.529Z,2.06
2018-11-28T07:43:13.870Z,2.00
2018-11-28T07:46:18.436Z,2.08
2018-11-28T07:49:23.166Z,2.06
2018-11-28T07:52:27.767Z,2.09
2018-11-28T07:55:32.368Z,2.16
2018-11-28T07:58:36.919Z,2.27
2018-11-28T08:01:41.572Z,2.27
2018-11-28T08:04:46.123Z,2.38
2018-11-28T08:07:50.729Z,2.35
2018-11-28T08:10:55.322Z,2.41
2018-11-28T08:13:59.991Z,2.40
2018-11-28T08:17:04.699Z,2.32
2018-11-28T08:20:09.407Z,2.39
2018-11-28T08:23:13.982Z,2.42
2018-11-28T08:26:18.525Z,2.32
2018-11-28T08:29:23.100Z,2.32
2018-11-28T08:32:27.678Z,2.40
2018-11-28T08:35:32.211Z,2.46
2018-11-28T08:38:36.732Z,2.47
2018-11-28T08:41:41.362Z,2.36
2018-11-28T08:44:46.098Z,2.57
2018-11-28T08:47:52.530Z,2.44
2018-11-28T08:50:57.236Z,2.56
2018-11-28T08:54:01.796Z,2.84
2018-11-28T08:57:06.541Z,2.55
2018-11-28T09:00:16.903Z,2.68
2018-11-28T09:03:21.429Z,2.76
2018-11-28T09:06:26.008Z,2.70
2018-11-28T09:09:30.684Z,2.79
2018-11-28T09:12:35.333Z,2.89
2018-11-28T09:15:40.578Z,2.98
2018-11-28T09:18:47.793Z,3.08
2018-11-28T09:21:52.364Z,2.91
2018-11-28T09:24:56.905Z,2.89
2018-11-28T09:28:01.664Z,2.97
2018-11-28T09:31:06.249Z,3.03
2018-11-28T09:34:10.905Z,3.04
2018-11-28T09:37:15.466Z,3.04
2018-11-28T09:40:25.667Z,3.05
2018-11-28T09:43:30.298Z,2.98
2018-11-28T09:46:34.969Z,3.13
2018-11-28T09:49:39.487Z,3.13
2018-11-28T09:52:44.111Z,3.18
2018-11-28T09:55:48.582Z,3.33
2018-11-28T09:58:53.133Z,3.48
2018-11-28T10:01:57.777Z,3.55
2018-11-28T10:05:03.015Z,3.40
2018-11-28T10:08:07.029Z,3.22
2018-11-28T10:11:12.129Z,3.19
2018-11-28T10:14:16.661Z,3.12
2018-11-28T10:17:21.299Z,3.04
2018-11-28T10:20:25.793Z,3.13
2018-11-28T10:23:30.328Z,3.24
2018-11-28T10:26:34.899Z,3.33
2018-11-28T10:29:39.421Z,3.34
2018-11-28T10:32:44.033Z,3.45
2018-11-28T10:35:48.629Z,3.43
2018-11-28T10:38:53.194Z,3.58
2018-11-28T10:41:57.822Z,3.68
2018-11-28T10:45:02.349Z,3.78
2018-11-28T10:48:08.806Z,3.73
2018-11-28T10:51:13.387Z,3.92
2018-11-28T10:54:17.955Z,3.83
2018-11-28T10:57:22.467Z,3.94
2018-11-28T11:00:34.937Z,3.95
2018-11-28T11:03:44.890Z,4.16
2018-11-28T11:06:54.756Z,4.12
2018-11-28T11:10:04.676Z,4.18
2018-11-28T11:13:14.440Z,4.21
2018-11-28T11:16:24.288Z,4.36
2018-11-28T11:19:28.887Z,4.27
2018-11-28T11:22:33.857Z,4.38
2018-11-28T11:25:38.784Z,4.43
2018-11-28T11:28:43.471Z,4.49
2018-11-28T11:31:48.070Z,4.71
2018-11-28T11:34:52.701Z,4.59
2018-11-28T11:37:57.316Z,4.80
2018-11-28T11:41:01.813Z,4.56
2018-11-28T11:44:06.496Z,4.65
2018-11-28T11:47:11.128Z,4.65
2018-11-28T11:50:18.191Z,4.70
2018-11-28T11:53:22.850Z,4.83
2018-11-28T11:56:27.436Z,4.85
2018-11-28T11:59:32.029Z,5.02
2018-11-28T12:02:36.553Z,5.13
2018-11-28T12:05:46.518Z,5.33
2018-11-28T12:08:51.006Z,5.32
2018-11-28T12:11:55.529Z,5.27
2018-11-28T12:15:00.265Z,5.01
2018-11-28T12:18:05.008Z,4.92
2018-11-28T12:21:09.576Z,4.86
2018-11-28T12:24:14.205Z,4.97
2018-11-28T12:27:18.774Z,4.90
2018-11-28T12:30:23.510Z,5.17
2018-11-28T12:33:28.195Z,5.13
2018-11-28T12:36:32.746Z,5.20
2018-11-28T12:39:38.206Z,5.20
2018-11-28T12:42:45.534Z,5.17
2018-11-28T12:45:51.461Z,5.12
2018-11-28T12:48:56.110Z,5.23
2018-11-28T12:52:00.723Z,5.05
2018-11-28T12:55:05.519Z,5.16
2018-11-28T12:58:16.038Z,5.33
2018-11-28T13:01:20.568Z,5.19
2018-11-28T13:04:25.389Z,5.10
2018-11-28T13:07:30.054Z,5.05
2018-11-28T13:10:36.786Z,5.04
2018-11-28T13:13:41.357Z,5.14
2018-11-28T13:16:46.009Z,5.18
2018-11-28T13:19:50.678Z,5.20
2018-11-28T13:22:56.539Z,5.13
2018-11-28T13:26:01.101Z,5.17
2018-11-28T13:29:06.472Z,5.13
2018-11-28T13:32:11.286Z,5.05
2018-11-28T13:35:22.305Z,5.07
2018-11-28T13:38:26.943Z,5.12
2018-11-28T13:41:31.528Z,5.08
2018-11-28T13:44:36.197Z,5.02
2018-11-28T13:47:41.319Z,4.92
2018-11-28T13:50:46.537Z,4.99
2018-11-28T13:53:51.216Z,5.08
2018-11-28T13:56:58.720Z,5.01
2018-11-28T14:00:02.479Z,5.10
2018-11-28T14:03:07.326Z,4.95
2018-11-28T14:06:12.061Z,4.82
2018-11-28T14:09:17.618Z,4.76
2018-11-28T14:12:22.518Z,4.72
2018-11-28T14:15:27.287Z,4.70
2018-11-28T14:18:32.052Z,4.64
2018-11-28T14:21:36.829Z,4.61
2018-11-28T14:24:41.470Z,4.60
2018-11-28T14:27:46.326Z,4.65
2018-11-28T14:30:51.250Z,4.55
2018-11-28T14:33:56.039Z,4.63
2018-11-28T14:37:00.637Z,4.65
2018-11-28T14:40:08.913Z,4.57
2018-11-28T14:43:13.880Z,4.53
2018-11-28T14:46:18.510Z,4.54
2018-11-28T14:49:23.232Z,4.54
2018-11-28T14:52:27.822Z,4.48
2018-11-28T14:55:36.926Z,4.52
2018-11-28T14:58:41.748Z,4.41
2018-11-28T15:01:46.290Z,4.41
2018-11-28T15:04:51.328Z,4.34
2018-11-28T15:08:10.683Z,4.38
2018-11-28T15:11:16.030Z,4.32
2018-11-28T15:14:20.553Z,4.32
2018-11-28T15:17:25.391Z,4.26
2018-11-28T15:20:30.007Z,4.23
2018-11-28T15:23:34.630Z,4.15
2018-11-28T15:26:39.345Z,4.17
2018-11-28T15:29:44.100Z,4.10
2018-11-28T15:32:48.776Z,4.04
2018-11-28T15:35:53.553Z,4.05
2018-11-28T15:38:58.129Z,4.10
2018-11-28T15:42:02.768Z,3.99
2018-11-28T15:45:09.331Z,4.04
2018-11-28T15:48:14.343Z,3.97
2018-11-28T15:51:18.848Z,3.93
2018-11-28T15:54:23.418Z,3.93
2018-11-28T15:57:28.031Z,3.92
2018-11-28T16:00:32.797Z,3.86
2018-11-28T16:03:37.418Z,3.78
2018-11-28T16:06:41.998Z,3.75
2018-11-28T16:09:51.712Z,3.65
2018-11-28T16:12:56.689Z,3.56
2018-11-28T16:16:01.491Z,3.64
2018-11-28T16:19:06.571Z,3.56
2018-11-28T16:22:11.441Z,3.53
2018-11-28T16:25:16.291Z,3.48
2018-11-28T16:28:21.108Z,3.44
2018-11-28T16:31:25.956Z,3.34
2018-11-28T16:34:30.658Z,3.23
2018-11-28T16:37:35.304Z,3.34
2018-11-28T16:40:40.253Z,3.38
2018-11-28T16:43:44.853Z,3.33
2018-11-28T16:46:49.381Z,3.42
2018-11-28T16:49:53.965Z,3.32
2018-11-28T16:52:58.635Z,3.14
2018-11-28T16:56:03.352Z,3.03
2018-11-28T16:59:08.777Z,2.95
2018-11-28T17:02:13.505Z,2.98
2018-11-28T17:05:20.860Z,2.98
2018-11-28T17:08:25.415Z,3.07
2018-11-28T17:11:30.183Z,3.10
2018-11-28T17:14:36.405Z,3.25
2018-11-28T17:17:47.673Z,3.17
2018-11-28T17:20:52.230Z,2.98
2018-11-28T17:23:56.972Z,2.88
2018-11-28T17:27:01.816Z,2.97
2018-11-28T17:30:10.939Z,2.91
2018-11-28T17:33:15.552Z,3.14
2018-11-28T17:36:20.135Z,3.16
2018-11-28T17:39:24.708Z,3.22
2018-11-28T17:42:29.315Z,3.27
2018-11-28T17:45:34.091Z,3.19
2018-11-28T17:48:39.259Z,3.27
2018-11-28T17:51:43.818Z,3.13
2018-11-28T17:54:48.480Z,3.24
2018-11-28T17:57:53.064Z,3.11
2018-11-28T18:00:57.850Z,3.07
2018-11-28T18:04:02.382Z,3.04
2018-11-28T18:07:07.558Z,3.23
2018-11-28T18:10:17.272Z,3.14
2018-11-28T18:13:21.838Z,3.04
2018-11-28T18:16:29.500Z,3.01
2018-11-28T18:19:31.367Z,3.06
2018-11-28T18:22:35.878Z,3.10
2018-11-28T18:25:41.599Z,3.03
2018-11-28T18:28:46.153Z,3.04
2018-11-28T18:31:50.772Z,3.07
2018-11-28T18:34:55.290Z,3.07
2018-11-28T18:37:59.958Z,3.05
2018-11-28T18:41:08.032Z,3.02
2018-11-28T18:44:12.722Z,3.06
2018-11-28T18:47:17.294Z,3.09
2018-11-28T18:50:22.015Z,3.08
2018-11-28T18:53:26.598Z,2.99
2018-11-28T18:56:31.216Z,2.98
2018-11-28T18:59:35.753Z,2.94
2018-11-28T19:02:40.897Z,3.06
2018-11-28T19:05:45.442Z,3.04
2018-11-28T19:08:50.159Z,2.95
2018-11-28T19:11:54.807Z,2.84
2018-11-28T19:14:59.442Z,2.83
2018-11-28T19:18:04.130Z,2.81
2018-11-28T19:21:08.900Z,2.84
2018-11-28T19:24:13.511Z,2.82
2018-11-28T19:27:18.107Z,2.78
2018-11-28T19:30:36.018Z,2.75
2018-11-28T19:33:40.772Z,2.71
2018-11-28T19:36:45.426Z,2.70
2018-11-28T19:39:50.068Z,2.73
2018-11-28T19:42:54.802Z,2.72
2018-11-28T19:45:59.744Z,2.74
2018-11-28T19:49:04.377Z,2.74
2018-11-28T19:52:09.141Z,2.72
2018-11-28T19:55:13.895Z,2.77
2018-11-28T19:58:18.682Z,2.76
2018-11-28T20:01:23.385Z,2.65
2018-11-28T20:04:28.061Z,2.78
2018-11-28T20:07:32.774Z,2.66
2018-11-28T20:10:37.584Z,2.58
2018-11-28T20:13:43.711Z,2.57
2018-11-28T20:16:53.380Z,2.70
2018-11-28T20:19:59.270Z,2.68
2018-11-28T20:23:04.064Z,2.63
2018-11-28T20:26:08.819Z,2.64
2018-11-28T20:29:14.446Z,2.73
2018-11-28T20:32:19.133Z,2.75
2018-11-28T20:35:23.939Z,2.62
2018-11-28T20:38:33.068Z,2.66
2018-11-28T20:41:37.889Z,2.64
2018-11-28T20:44:42.609Z,2.61
2018-11-28T20:47:47.384Z,2.56
2018-11-28T20:50:53.001Z,2.54
2018-11-28T20:53:57.619Z,2.57
2018-11-28T20:57:02.231Z,2.60
2018-11-28T21:00:11.742Z,2.68
2018-11-28T21:03:16.366Z,2.56
2018-11-28T21:06:21.076Z,2.58
2018-11-28T21:09:25.965Z,2.63
2018-11-28T21:12:30.524Z,2.52
2018-11-28T21:15:35.059Z,2.48
2018-11-28T21:18:39.816Z,2.44
2018-11-28T21:21:44.515Z,2.39
2018-11-28T21:24:49.089Z,2.41
2018-11-28T21:27:53.750Z,2.51
2018-11-28T21:30:58.486Z,2.45
2018-11-28T21:34:03.152Z,2.41
2018-11-28T21:37:07.745Z,2.45
2018-11-28T21:40:13.050Z,2.38
2018-11-28T21:43:17.612Z,2.40
2018-11-28T21:46:22.246Z,2.42
2018-11-28T21:49:28.376Z,2.37
2018-11-28T21:52:33.076Z,2.51
2018-11-28T21:55:37.685Z,2.54
2018-11-28T21:58:42.276Z,2.33
2018-11-28T22:01:46.903Z,2.40
2018-11-28T22:04:51.552Z,2.38
2018-11-28T22:07:56.145Z,2.41
2018-11-28T22:11:00.695Z,2.39
2018-11-28T22:14:06.213Z,2.34
2018-11-28T22:17:10.660Z,2.37
2018-11-28T22:20:15.955Z,2.35
2018-11-28T22:23:20.461Z,2.27
2018-11-28T22:26:24.999Z,2.23
2018-11-28T22:29:29.717Z,2.20
2018-11-28T22:32:34.442Z,2.25
2018-11-28T22:35:39.175Z,2.28
2018-11-28T22:38:43.928Z,2.32
2018-11-28T22:41:48.610Z,2.33
2018-11-28T22:44:53.178Z,2.27
2018-11-28T22:47:57.694Z,2.25
2018-11-28T22:51:02.238Z,2.19
2018-11-28T22:54:06.861Z,2.32
2018-11-28T22:57:11.448Z,2.24
2018-11-28T23:00:29.140Z,2.31
2018-11-28T23:03:33.703Z,2.15
2018-11-28T23:06:38.305Z,2.26
2018-11-28T23:09:42.906Z,2.15
2018-11-28T23:12:47.502Z,2.08
2018-11-28T23:15:52.022Z,2.10
2018-11-28T23:18:57.431Z,2.08
2018-11-28T23:22:01.997Z,2.12
2018-11-28T23:25:10.724Z,1.98
2018-11-28T23:28:15.457Z,2.04
2018-11-28T23:31:19.972Z,1.99
2018-11-28T23:34:24.589Z,2.00
2018-11-28T23:37:29.198Z,1.95
2018-11-28T23:40:33.844Z,1.89
2018-11-28T23:43:38.539Z,1.96
2018-11-28T23:46:43.231Z,1.88
2018-11-28T23:49:47.803Z,1.81
2018-11-28T23:52:53.863Z,1.93
2018-11-28T23:55:58.444Z,1.86
2018-11-28T23:59:03.106Z,1.84
